DLH543 SKBO-EDDF
Flight info
| Callsign | DLH543 |
|---|---|
| Flight time | 0h 52m |
| Altitude | 35000 |
| Route | OSUSU4R AKROB DCT MAVDA DCT KIKAS UW50 PBL UP533 CITRS/M083F350 DCT 21N055W 24N050W 30N040W/M083F370 35N030W 41N020W/M083F390 DCT PASAS DCT SIVIR DCT RIVAK/N0478F390 DCT AKEMO/N0473F380 DCT GIGOT DCT OBATO UM163 TSU DCT OQQAL DCT RANUX/N0475F390 DCT VALEK DCT LIPNI DCT LIMGO/N0473F330 Z111 RAMOB IMCOM1A |
| Aircraft | A346/H-SDE2E3FGHIJ3J4J5M1RWXY/LB1D1 |
Departure
| Time | 2026-05-07 04:50 |
|---|---|
| Airport | El Dorado International Airport (SKBO) |
Arrival
| Time | 2026-05-07 05:42 |
|---|---|
| Airport | Frankfurt Main Airport (EDDF) |
| Time | Latitude | Longitude | Altitude | Speed | Heading |
|---|---|---|---|---|---|
| 2026-05-07 04:22 | 4.70101 | -74.14274 | 8381 ft | 0 kts | 198° |
| 2026-05-07 04:36 | 4.70102 | -74.14274 | 8381 ft | 2 kts | 198° |
| 2026-05-07 04:36 | 4.70127 | -74.14266 | 8377 ft | 4 kts | 198° |
| 2026-05-07 04:36 | 4.70149 | -74.14259 | 8378 ft | 4 kts | 204° |
| 2026-05-07 04:37 | 4.70165 | -74.14248 | 8378 ft | 4 kts | 237° |
| 2026-05-07 04:37 | 4.70169 | -74.14234 | 8377 ft | 4 kts | 281° |
| 2026-05-07 04:37 | 4.70160 | -74.14214 | 8378 ft | 4 kts | 306° |
| 2026-05-07 04:37 | 4.70144 | -74.14193 | 8378 ft | 4 kts | 307° |
| 2026-05-07 04:38 | 4.70128 | -74.14171 | 8379 ft | 4 kts | 307° |
| 2026-05-07 04:38 | 4.70120 | -74.14161 | 8379 ft | 0 kts | 307° |
| 2026-05-07 04:40 | 4.70121 | -74.14161 | 8379 ft | 0 kts | 307° |
| 2026-05-07 04:40 | 4.70127 | -74.14169 | 8378 ft | 3 kts | 307° |
| 2026-05-07 04:41 | 4.70141 | -74.14189 | 8377 ft | 4 kts | 307° |
| 2026-05-07 04:41 | 4.70157 | -74.14209 | 8379 ft | 3 kts | 309° |
| 2026-05-07 04:41 | 4.70173 | -74.14221 | 8377 ft | 2 kts | 339° |
| 2026-05-07 04:41 | 4.70190 | -74.14222 | 8379 ft | 4 kts | 11° |
| 2026-05-07 04:42 | 4.70225 | -74.14213 | 8380 ft | 5 kts | 6° |
| 2026-05-07 04:42 | 4.70256 | -74.14225 | 8377 ft | 5 kts | 322° |
| 2026-05-07 04:42 | 4.70286 | -74.14259 | 8379 ft | 7 kts | 307° |
| 2026-05-07 04:42 | 4.70313 | -74.14295 | 8379 ft | 6 kts | 307° |
| 2026-05-07 04:43 | 4.70337 | -74.14326 | 8379 ft | 5 kts | 310° |
| 2026-05-07 04:43 | 4.70362 | -74.14340 | 8378 ft | 4 kts | 349° |
| 2026-05-07 04:43 | 4.70388 | -74.14336 | 8379 ft | 5 kts | 17° |
| 2026-05-07 04:43 | 4.70436 | -74.14345 | 8379 ft | 10 kts | 319° |
| 2026-05-07 04:44 | 4.70489 | -74.14412 | 8381 ft | 15 kts | 307° |
| 2026-05-07 04:44 | 4.70556 | -74.14500 | 8377 ft | 16 kts | 307° |
| 2026-05-07 04:44 | 4.70627 | -74.14593 | 8379 ft | 17 kts | 307° |
| 2026-05-07 04:44 | 4.70698 | -74.14688 | 8379 ft | 16 kts | 307° |
| 2026-05-07 04:45 | 4.70764 | -74.14776 | 8379 ft | 15 kts | 307° |
| 2026-05-07 04:45 | 4.70827 | -74.14860 | 8379 ft | 15 kts | 307° |
| 2026-05-07 04:45 | 4.70887 | -74.14939 | 8379 ft | 14 kts | 307° |
| 2026-05-07 04:45 | 4.70945 | -74.15015 | 8379 ft | 13 kts | 307° |
| 2026-05-07 04:46 | 4.71000 | -74.15088 | 8379 ft | 13 kts | 307° |
| 2026-05-07 04:46 | 4.71054 | -74.15159 | 8379 ft | 12 kts | 307° |
| 2026-05-07 04:46 | 4.71105 | -74.15228 | 8379 ft | 12 kts | 307° |
| 2026-05-07 04:46 | 4.71152 | -74.15287 | 8379 ft | 9 kts | 317° |
| 2026-05-07 04:47 | 4.71207 | -74.15304 | 8378 ft | 8 kts | 6° |
| 2026-05-07 04:47 | 4.71255 | -74.15277 | 8379 ft | 8 kts | 45° |
| 2026-05-07 04:47 | 4.71297 | -74.15232 | 8378 ft | 8 kts | 47° |
| 2026-05-07 04:47 | 4.71317 | -74.15208 | 8377 ft | 4 kts | 60° |
| 2026-05-07 04:48 | 4.71318 | -74.15185 | 8376 ft | 3 kts | 105° |
| 2026-05-07 04:48 | 4.71314 | -74.15177 | 8377 ft | 0 kts | 126° |
| 2026-05-07 04:48 | 4.71313 | -74.15176 | 8377 ft | 0 kts | 126° |
| 2026-05-07 04:49 | 4.71224 | -74.15056 | 8376 ft | 52 kts | 127° |
| 2026-05-07 04:49 | 4.70876 | -74.14598 | 8377 ft | 111 kts | 127° |
| 2026-05-07 04:49 | 4.70301 | -74.13837 | 8375 ft | 161 kts | 127° |
| 2026-05-07 04:49 | 4.69535 | -74.12824 | 8385 ft | 200 kts | 128° |
| 2026-05-07 04:50 | 4.68655 | -74.11714 | 8869 ft | 201 kts | 126° |
| 2026-05-07 04:50 | 4.67916 | -74.10537 | 9484 ft | 200 kts | 105° |
| 2026-05-07 04:50 | 4.67907 | -74.09156 | 9925 ft | 204 kts | 70° |
| 2026-05-07 04:50 | 4.68762 | -74.08006 | 10238 ft | 214 kts | 34° |
| 2026-05-07 04:51 | 4.70195 | -74.07567 | 10378 ft | 224 kts | 358° |
| 2026-05-07 04:51 | 4.71750 | -74.07840 | 10645 ft | 227 kts | 351° |
| 2026-05-07 04:51 | 4.73337 | -74.08033 | 10812 ft | 235 kts | 5° |
| 2026-05-07 04:51 | 4.74974 | -74.07755 | 11024 ft | 242 kts | 17° |
| 2026-05-07 04:52 | 4.76582 | -74.07284 | 11535 ft | 238 kts | 21° |
| 2026-05-07 04:52 | 4.78114 | -74.06754 | 11971 ft | 236 kts | 24° |
| 2026-05-07 04:52 | 4.79690 | -74.06184 | 12146 ft | 247 kts | 23° |
| 2026-05-07 04:52 | 4.81370 | -74.05601 | 12302 ft | 260 kts | 23° |
| 2026-05-07 04:53 | 4.83129 | -74.04984 | 12407 ft | 277 kts | 23° |
| 2026-05-07 04:53 | 4.85001 | -74.04325 | 12507 ft | 293 kts | 22° |
| 2026-05-07 04:53 | 4.86966 | -74.03641 | 12732 ft | 305 kts | 22° |
| 2026-05-07 04:53 | 4.89028 | -74.02938 | 13004 ft | 316 kts | 22° |
| 2026-05-07 04:54 | 4.91156 | -74.02229 | 13245 ft | 329 kts | 21° |
| 2026-05-07 04:54 | 4.93368 | -74.01493 | 13490 ft | 341 kts | 21° |
| 2026-05-07 04:54 | 4.95656 | -74.00726 | 13701 ft | 353 kts | 22° |
| 2026-05-07 04:54 | 4.98020 | -73.99930 | 13935 ft | 364 kts | 22° |
| 2026-05-07 04:55 | 5.00458 | -73.99107 | 14151 ft | 376 kts | 21° |
| 2026-05-07 04:55 | 5.03006 | -73.98350 | 14341 ft | 389 kts | 18° |
| 2026-05-07 04:55 | 5.05659 | -73.97675 | 14618 ft | 397 kts | 17° |
| 2026-05-07 04:55 | 5.08357 | -73.97007 | 15047 ft | 399 kts | 17° |
| 2026-05-07 04:56 | 5.11025 | -73.96347 | 15487 ft | 401 kts | 17° |
| 2026-05-07 04:56 | 5.13777 | -73.95667 | 15948 ft | 403 kts | 17° |
| 2026-05-07 04:56 | 5.16468 | -73.95002 | 16419 ft | 404 kts | 17° |
| 2026-05-07 04:56 | 5.19211 | -73.94318 | 16829 ft | 407 kts | 17° |
| 2026-05-07 04:57 | 5.21932 | -73.93522 | 17177 ft | 407 kts | 27° |
| 2026-05-07 04:57 | 5.24279 | -73.91976 | 17557 ft | 404 kts | 46° |
| 2026-05-07 04:57 | 5.25986 | -73.89772 | 18011 ft | 401 kts | 63° |
| 2026-05-07 04:57 | 5.26954 | -73.87150 | 18364 ft | 402 kts | 76° |
| 2026-05-07 04:58 | 5.27628 | -73.84415 | 18754 ft | 404 kts | 76° |
| 2026-05-07 04:58 | 5.28304 | -73.81669 | 19089 ft | 406 kts | 76° |
| 2026-05-07 04:58 | 5.28990 | -73.78898 | 19421 ft | 409 kts | 76° |
| 2026-05-07 04:58 | 5.29686 | -73.76096 | 19765 ft | 412 kts | 76° |
| 2026-05-07 04:59 | 5.30385 | -73.73290 | 20070 ft | 415 kts | 76° |
| 2026-05-07 04:59 | 5.31089 | -73.70466 | 20372 ft | 418 kts | 76° |
| 2026-05-07 04:59 | 5.31796 | -73.67630 | 20708 ft | 420 kts | 76° |
| 2026-05-07 04:59 | 5.32270 | -73.65733 | 20907 ft | 422 kts | 76° |
| 2026-05-07 05:00 | 5.33228 | -73.61897 | 21317 ft | 426 kts | 76° |
| 2026-05-07 05:00 | 5.33951 | -73.58999 | 21553 ft | 430 kts | 76° |
| 2026-05-07 05:00 | 5.34434 | -73.57063 | 21765 ft | 431 kts | 76° |
| 2026-05-07 05:00 | 5.35167 | -73.54127 | 22063 ft | 434 kts | 76° |
| 2026-05-07 05:01 | 5.36144 | -73.50212 | 22454 ft | 437 kts | 76° |
| 2026-05-07 05:01 | 5.36644 | -73.48205 | 22623 ft | 439 kts | 76° |
| 2026-05-07 05:01 | 5.37483 | -73.45246 | 22920 ft | 442 kts | 71° |
| 2026-05-07 05:01 | 5.38600 | -73.42408 | 23214 ft | 444 kts | 65° |
| 2026-05-07 05:02 | 5.40026 | -73.39639 | 23468 ft | 447 kts | 60° |
| 2026-05-07 05:02 | 5.41683 | -73.36975 | 23659 ft | 451 kts | 57° |
| 2026-05-07 05:02 | 5.43395 | -73.34325 | 23910 ft | 453 kts | 57° |
| 2026-05-07 05:02 | 5.45127 | -73.31669 | 24134 ft | 456 kts | 56° |
| 2026-05-07 05:03 | 5.47812 | -73.28739 | 24362 ft | 460 kts | 41° |
| 2026-05-07 05:03 | 5.52787 | -73.24634 | 24830 ft | 464 kts | 39° |
| 2026-05-07 05:03 | 5.60437 | -73.18261 | 25479 ft | 470 kts | 40° |
| 2026-05-07 05:03 | 5.72592 | -73.07865 | 26519 ft | 478 kts | 41° |
| 2026-05-07 05:04 | 5.85133 | -72.97090 | 27525 ft | 488 kts | 41° |
| 2026-05-07 05:04 | 5.97953 | -72.86072 | 28567 ft | 495 kts | 40° |
| 2026-05-07 05:04 | 6.10746 | -72.75067 | 30021 ft | 493 kts | 41° |
| 2026-05-07 05:04 | 6.23760 | -72.63862 | 31197 ft | 493 kts | 40° |
| 2026-05-07 05:05 | 6.36877 | -72.52566 | 32150 ft | 497 kts | 40° |
| 2026-05-07 05:05 | 6.50005 | -72.41252 | 33115 ft | 500 kts | 41° |
| 2026-05-07 05:05 | 6.63393 | -72.29700 | 34268 ft | 499 kts | 41° |
| 2026-05-07 05:05 | 6.76827 | -72.18103 | 35036 ft | 501 kts | 40° |
| 2026-05-07 05:06 | 7.02763 | -71.95501 | 35033 ft | 501 kts | 44° |
| 2026-05-07 05:06 | 7.26594 | -71.70704 | 35021 ft | 501 kts | 45° |
| 2026-05-07 05:07 | 13.61732 | -64.14066 | 35139 ft | 518 kts | 53° |
| 2026-05-07 05:07 | 13.73089 | -64.00959 | 34970 ft | 492 kts | 47° |
| 2026-05-07 05:07 | 17.99328 | -59.00869 | 35039 ft | 530 kts | 50° |
| 2026-05-07 05:07 | 18.10408 | -58.86545 | 35009 ft | 496 kts | 51° |
| 2026-05-07 05:08 | 20.98998 | -55.01366 | 35282 ft | 517 kts | 53° |
| 2026-05-07 05:08 | 24.09262 | -49.86095 | 35299 ft | 490 kts | 52° |
| 2026-05-07 05:09 | 24.20378 | -49.69396 | 35179 ft | 503 kts | 52° |
| 2026-05-07 05:09 | 24.31180 | -49.53087 | 35181 ft | 502 kts | 52° |
| 2026-05-07 05:09 | 30.16516 | -39.70847 | 35920 ft | 497 kts | 52° |
| 2026-05-07 05:10 | 30.26680 | -39.52801 | 37311 ft | 489 kts | 52° |
| 2026-05-07 05:10 | 34.97706 | -30.05272 | 37583 ft | 501 kts | 63° |
| 2026-05-07 05:10 | 35.08294 | -29.87858 | 37744 ft | 471 kts | 41° |
| 2026-05-07 05:10 | 45.01783 | -12.92983 | 40874 ft | 486 kts | 65° |
| 2026-05-07 05:11 | 45.14304 | -12.43966 | 39088 ft | 487 kts | 68° |
| 2026-05-07 05:11 | 45.99935 | -8.68081 | 39194 ft | 485 kts | 86° |
| 2026-05-07 05:12 | 46.00353 | -8.06206 | 39050 ft | 489 kts | 84° |
| 2026-05-07 05:12 | 46.04847 | -7.80376 | 39046 ft | 487 kts | 69° |
| 2026-05-07 05:12 | 47.66839 | -1.37800 | 38961 ft | 488 kts | 62° |
| 2026-05-07 05:13 | 47.84246 | -0.89134 | 38964 ft | 488 kts | 62° |
| 2026-05-07 05:13 | 49.13407 | 4.32795 | 39287 ft | 487 kts | 74° |
| 2026-05-07 05:14 | 49.20061 | 4.59047 | 38900 ft | 497 kts | 68° |
| 2026-05-07 05:14 | 49.27434 | 4.86406 | 40012 ft | 494 kts | 69° |
| 2026-05-07 05:14 | 49.34541 | 5.13167 | 40844 ft | 498 kts | 69° |
| 2026-05-07 05:14 | 49.41336 | 5.39045 | 40821 ft | 497 kts | 69° |
| 2026-05-07 05:15 | 49.54432 | 5.90336 | 40805 ft | 498 kts | 71° |
| 2026-05-07 05:15 | 49.59647 | 6.11499 | 40810 ft | 498 kts | 71° |
| 2026-05-07 05:16 | 49.64171 | 6.28820 | 40806 ft | 499 kts | 65° |
| 2026-05-07 05:16 | 49.67384 | 6.38285 | 40766 ft | 497 kts | 63° |
| 2026-05-07 05:17 | 49.69026 | 6.43045 | 40473 ft | 493 kts | 63° |
| 2026-05-07 05:17 | 49.70618 | 6.47663 | 39910 ft | 493 kts | 64° |
| 2026-05-07 05:17 | 49.71978 | 6.52530 | 39347 ft | 490 kts | 73° |
| 2026-05-07 05:17 | 49.73011 | 6.57536 | 38910 ft | 486 kts | 75° |
| 2026-05-07 05:18 | 49.74583 | 6.65739 | 37997 ft | 485 kts | 76° |
| 2026-05-07 05:18 | 49.76570 | 6.76048 | 36713 ft | 483 kts | 75° |
| 2026-05-07 05:18 | 49.78619 | 6.86526 | 35490 ft | 481 kts | 76° |
| 2026-05-07 05:18 | 49.80686 | 6.97092 | 34307 ft | 479 kts | 76° |
| 2026-05-07 05:19 | 49.82669 | 7.07267 | 33070 ft | 477 kts | 76° |
| 2026-05-07 05:19 | 49.84638 | 7.17415 | 31605 ft | 478 kts | 76° |
| 2026-05-07 05:19 | 49.86567 | 7.27411 | 30115 ft | 480 kts | 76° |
| 2026-05-07 05:19 | 49.88508 | 7.37530 | 28487 ft | 480 kts | 76° |
| 2026-05-07 05:20 | 49.90434 | 7.47667 | 26814 ft | 482 kts | 75° |
| 2026-05-07 05:20 | 49.92368 | 7.57844 | 25735 ft | 470 kts | 75° |
| 2026-05-07 05:20 | 49.94212 | 7.67601 | 24547 ft | 463 kts | 75° |
| 2026-05-07 05:20 | 49.96072 | 7.77490 | 23200 ft | 461 kts | 74° |
| 2026-05-07 05:21 | 49.97905 | 7.87262 | 21535 ft | 448 kts | 75° |
| 2026-05-07 05:21 | 50.01864 | 8.05388 | 16975 ft | 417 kts | 70° |
| 2026-05-07 05:21 | 50.03982 | 8.14028 | 14589 ft | 405 kts | 70° |
| 2026-05-07 05:22 | 50.05443 | 8.20027 | 12921 ft | 396 kts | 70° |
| 2026-05-07 05:22 | 50.06403 | 8.23972 | 11827 ft | 390 kts | 70° |
| 2026-05-07 05:22 | 50.07356 | 8.27891 | 10724 ft | 384 kts | 70° |
| 2026-05-07 05:22 | 50.08289 | 8.31751 | 9738 ft | 376 kts | 70° |
| 2026-05-07 05:23 | 50.09193 | 8.35503 | 9093 ft | 358 kts | 70° |
| 2026-05-07 05:23 | 50.10041 | 8.39027 | 8787 ft | 332 kts | 70° |
| 2026-05-07 05:23 | 50.10824 | 8.42279 | 8543 ft | 307 kts | 70° |
| 2026-05-07 05:23 | 50.11555 | 8.45312 | 8265 ft | 288 kts | 71° |
| 2026-05-07 05:24 | 50.12238 | 8.48162 | 7999 ft | 274 kts | 71° |
| 2026-05-07 05:24 | 50.12923 | 8.51031 | 7639 ft | 280 kts | 71° |
| 2026-05-07 05:24 | 50.13605 | 8.53880 | 7276 ft | 281 kts | 71° |
| 2026-05-07 05:24 | 50.14290 | 8.56760 | 6908 ft | 279 kts | 71° |
| 2026-05-07 05:25 | 50.14968 | 8.59611 | 6571 ft | 280 kts | 71° |
| 2026-05-07 05:25 | 50.15654 | 8.62496 | 6192 ft | 282 kts | 71° |
| 2026-05-07 05:25 | 50.16336 | 8.65365 | 5864 ft | 281 kts | 71° |
| 2026-05-07 05:25 | 50.17014 | 8.68218 | 5604 ft | 277 kts | 72° |
| 2026-05-07 05:26 | 50.17400 | 8.71130 | 5315 ft | 270 kts | 96° |
| 2026-05-07 05:26 | 50.16924 | 8.73839 | 5012 ft | 258 kts | 125° |
| 2026-05-07 05:26 | 50.15726 | 8.75765 | 4598 ft | 242 kts | 154° |
| 2026-05-07 05:26 | 50.14229 | 8.76868 | 4220 ft | 233 kts | 161° |
| 2026-05-07 05:27 | 50.12722 | 8.77738 | 3794 ft | 228 kts | 169° |
| 2026-05-07 05:27 | 50.11180 | 8.77779 | 3297 ft | 220 kts | 202° |
| 2026-05-07 05:27 | 50.09785 | 8.76814 | 2863 ft | 215 kts | 211° |
| 2026-05-07 05:27 | 50.08516 | 8.75677 | 2514 ft | 203 kts | 220° |
| 2026-05-07 05:28 | 50.07697 | 8.74104 | 2414 ft | 173 kts | 242° |
| 2026-05-07 05:28 | 50.07241 | 8.72437 | 2238 ft | 161 kts | 252° |
| 2026-05-07 05:28 | 50.06893 | 8.70831 | 2012 ft | 151 kts | 253° |
| 2026-05-07 05:28 | 50.06560 | 8.69326 | 1856 ft | 148 kts | 251° |
| 2026-05-07 05:29 | 50.06202 | 8.67806 | 1672 ft | 147 kts | 251° |
| 2026-05-07 05:29 | 50.05843 | 8.66311 | 1463 ft | 147 kts | 250° |
| 2026-05-07 05:29 | 50.05481 | 8.64818 | 1272 ft | 146 kts | 251° |
| 2026-05-07 05:29 | 50.05127 | 8.63326 | 1031 ft | 145 kts | 249° |
| 2026-05-07 05:30 | 50.04775 | 8.61860 | 842 ft | 146 kts | 250° |
| 2026-05-07 05:30 | 50.04424 | 8.60387 | 613 ft | 144 kts | 250° |
| 2026-05-07 05:30 | 50.04056 | 8.58842 | 625 ft | 170 kts | 249° |
| 2026-05-07 05:30 | 50.03616 | 8.56993 | 1026 ft | 192 kts | 249° |
| 2026-05-07 05:31 | 50.03125 | 8.54911 | 1566 ft | 216 kts | 250° |
| 2026-05-07 05:31 | 50.02579 | 8.52574 | 2175 ft | 239 kts | 248° |
| 2026-05-07 05:31 | 50.01745 | 8.50347 | 3230 ft | 226 kts | 235° |
| 2026-05-07 05:31 | 50.00742 | 8.48364 | 4087 ft | 237 kts | 223° |
| 2026-05-07 05:32 | 49.99283 | 8.47129 | 4588 ft | 246 kts | 194° |
| 2026-05-07 05:32 | 49.97572 | 8.47188 | 4827 ft | 252 kts | 166° |
| 2026-05-07 05:32 | 49.96056 | 8.48580 | 4840 ft | 259 kts | 136° |
| 2026-05-07 05:32 | 49.95165 | 8.51032 | 4829 ft | 265 kts | 107° |
| 2026-05-07 05:33 | 49.94905 | 8.53842 | 4833 ft | 268 kts | 96° |
| 2026-05-07 05:33 | 49.94814 | 8.56744 | 4837 ft | 268 kts | 94° |
| 2026-05-07 05:33 | 49.94793 | 8.59649 | 4842 ft | 269 kts | 88° |
| 2026-05-07 05:33 | 49.94977 | 8.62543 | 4846 ft | 269 kts | 85° |
| 2026-05-07 05:34 | 49.95229 | 8.65442 | 4846 ft | 270 kts | 83° |
| 2026-05-07 05:34 | 49.95487 | 8.68331 | 4832 ft | 270 kts | 84° |
| 2026-05-07 05:34 | 49.95752 | 8.71231 | 4817 ft | 271 kts | 83° |
| 2026-05-07 05:34 | 49.96019 | 8.74105 | 4813 ft | 265 kts | 83° |
| 2026-05-07 05:35 | 49.96274 | 8.76830 | 4807 ft | 244 kts | 83° |
| 2026-05-07 05:35 | 49.96517 | 8.79416 | 4839 ft | 241 kts | 83° |
| 2026-05-07 05:35 | 49.96865 | 8.81968 | 4656 ft | 243 kts | 65° |
| 2026-05-07 05:35 | 49.97890 | 8.83969 | 4392 ft | 239 kts | 32° |
| 2026-05-07 05:36 | 49.99395 | 8.85062 | 4159 ft | 235 kts | 17° |
| 2026-05-07 05:36 | 50.00968 | 8.85621 | 3821 ft | 229 kts | 356° |
| 2026-05-07 05:36 | 50.02506 | 8.85320 | 3481 ft | 219 kts | 346° |
| 2026-05-07 05:36 | 50.03970 | 8.84802 | 3048 ft | 211 kts | 337° |
| 2026-05-07 05:37 | 50.05336 | 8.84086 | 2672 ft | 202 kts | 339° |
| 2026-05-07 05:37 | 50.06632 | 8.83482 | 2487 ft | 186 kts | 339° |
| 2026-05-07 05:37 | 50.07861 | 8.82924 | 2384 ft | 180 kts | 331° |
| 2026-05-07 05:37 | 50.08731 | 8.81687 | 2246 ft | 167 kts | 290° |
| 2026-05-07 05:38 | 50.08844 | 8.79928 | 2143 ft | 161 kts | 263° |
| 2026-05-07 05:38 | 50.08587 | 8.78200 | 2111 ft | 167 kts | 254° |
| 2026-05-07 05:38 | 50.08247 | 8.76489 | 2101 ft | 168 kts | 251° |
| 2026-05-07 05:38 | 50.07868 | 8.74811 | 2090 ft | 156 kts | 251° |
| 2026-05-07 05:39 | 50.07505 | 8.73269 | 2125 ft | 149 kts | 250° |
| 2026-05-07 05:39 | 50.07141 | 8.71763 | 2127 ft | 148 kts | 252° |
| 2026-05-07 05:39 | 50.06780 | 8.70254 | 1989 ft | 147 kts | 251° |
| 2026-05-07 05:39 | 50.06425 | 8.68762 | 1815 ft | 146 kts | 251° |
| 2026-05-07 05:40 | 50.06067 | 8.67272 | 1592 ft | 146 kts | 251° |
| 2026-05-07 05:40 | 50.05713 | 8.65801 | 1350 ft | 144 kts | 251° |
| 2026-05-07 05:40 | 50.05365 | 8.64350 | 1195 ft | 141 kts | 251° |
| 2026-05-07 05:40 | 50.05025 | 8.62917 | 953 ft | 140 kts | 250° |
| 2026-05-07 05:41 | 50.04681 | 8.61482 | 770 ft | 142 kts | 250° |
| 2026-05-07 05:41 | 50.04343 | 8.60061 | 599 ft | 137 kts | 250° |
| 2026-05-07 05:41 | 50.04009 | 8.58664 | 404 ft | 137 kts | 250° |
| 2026-05-07 05:41 | 50.03702 | 8.57381 | 367 ft | 108 kts | 250° |
| 2026-05-07 05:42 | 50.03506 | 8.56560 | 366 ft | 52 kts | 249° |
| 2026-05-07 05:42 | 50.03441 | 8.56237 | 363 ft | 24 kts | 262° |
| 2026-05-07 05:42 | 50.03447 | 8.55964 | 361 ft | 27 kts | 279° |
| 2026-05-07 05:42 | 50.03480 | 8.55670 | 357 ft | 26 kts | 279° |
| 2026-05-07 05:43 | 50.03482 | 8.55429 | 353 ft | 22 kts | 253° |
| 2026-05-07 05:43 | 50.03425 | 8.55193 | 357 ft | 24 kts | 249° |
| 2026-05-07 05:43 | 50.03364 | 8.54933 | 352 ft | 27 kts | 249° |
| 2026-05-07 05:43 | 50.03296 | 8.54650 | 356 ft | 29 kts | 249° |
| 2026-05-07 05:44 | 50.03270 | 8.54526 | 349 ft | 5 kts | 275° |
| 2026-05-07 05:44 | 50.03299 | 8.54484 | 353 ft | 8 kts | 338° |
| 2026-05-07 05:44 | 50.03346 | 8.54460 | 356 ft | 4 kts | 341° |
| 2026-05-07 05:44 | 50.03349 | 8.54459 | 357 ft | 0 kts | 341° |
| 2026-05-07 05:45 | 50.03365 | 8.54450 | 357 ft | 6 kts | 341° |
| 2026-05-07 05:45 | 50.03427 | 8.54415 | 355 ft | 11 kts | 340° |
| 2026-05-07 05:45 | 50.03502 | 8.54372 | 359 ft | 13 kts | 339° |
| 2026-05-07 05:46 | 50.03600 | 8.54315 | 360 ft | 14 kts | 340° |
| 2026-05-07 05:46 | 50.03662 | 8.54343 | 357 ft | 11 kts | 54° |
| 2026-05-07 05:46 | 50.03696 | 8.54475 | 355 ft | 14 kts | 70° |
| 2026-05-07 05:46 | 50.03733 | 8.54633 | 358 ft | 17 kts | 69° |
| 2026-05-07 05:47 | 50.03779 | 8.54825 | 359 ft | 19 kts | 69° |
| 2026-05-07 05:47 | 50.03829 | 8.55034 | 363 ft | 22 kts | 69° |
| 2026-05-07 05:47 | 50.03886 | 8.55270 | 363 ft | 24 kts | 69° |
| 2026-05-07 05:47 | 50.03947 | 8.55527 | 359 ft | 26 kts | 69° |
| 2026-05-07 05:48 | 50.04013 | 8.55803 | 364 ft | 25 kts | 69° |
| 2026-05-07 05:48 | 50.04046 | 8.55942 | 361 ft | 8 kts | 63° |
| 2026-05-07 05:48 | 50.04098 | 8.55967 | 363 ft | 9 kts | 349° |
| 2026-05-07 05:48 | 50.04142 | 8.55944 | 365 ft | 11 kts | 339° |
| 2026-05-07 05:49 | 50.04220 | 8.55922 | 362 ft | 10 kts | 13° |
| 2026-05-07 05:49 | 50.04295 | 8.55956 | 366 ft | 12 kts | 350° |
| 2026-05-07 05:49 | 50.04374 | 8.55912 | 369 ft | 12 kts | 343° |
| 2026-05-07 05:49 | 50.04461 | 8.55924 | 370 ft | 13 kts | 18° |
| 2026-05-07 05:50 | 50.04532 | 8.55960 | 368 ft | 9 kts | 25° |
| 2026-05-07 05:50 | 50.04577 | 8.56058 | 368 ft | 13 kts | 70° |
| 2026-05-07 05:50 | 50.04613 | 8.56211 | 370 ft | 15 kts | 70° |
| 2026-05-07 05:50 | 50.04647 | 8.56353 | 369 ft | 11 kts | 69° |
| 2026-05-07 05:51 | 50.04662 | 8.56417 | 369 ft | 3 kts | 69° |
| 2026-05-07 05:51 | 50.04674 | 8.56466 | 368 ft | 6 kts | 69° |
| 2026-05-07 05:51 | 50.04689 | 8.56514 | 372 ft | 5 kts | 50° |
| 2026-05-07 05:51 | 50.04719 | 8.56527 | 367 ft | 5 kts | 350° |
| 2026-05-07 05:52 | 50.04748 | 8.56513 | 368 ft | 3 kts | 338° |
| 2026-05-07 05:52 | 50.04761 | 8.56505 | 370 ft | 2 kts | 339° |
| 2026-05-07 05:52 | 50.04768 | 8.56501 | 369 ft | 1 kts | 339° |
| 2026-05-07 05:52 | 50.04772 | 8.56498 | 368 ft | 0 kts | 339° |
| 2026-05-07 05:53 | 50.04774 | 8.56497 | 368 ft | 0 kts | 339° |